Time;durP1;ratioP1;P1;durP2;ratioP2;P2;SDS_P1;SDS_P2;PMS_P1;PMS_P2;Temp;Humidity;BMP_temperature;BMP_pressure;BME280_temperature;BME280_humidity;BME280_pressure;Samples;Min_cycle;Max_cycle;Signal;HPM_P1;HPM_P2
2021/01/10 00:00:43;;;;;;;3.03;2.20;;;24.80;68.30;;;;;;5071562;28;20025;-55
2021/01/10 00:03:13;;;;;;;2.63;2.42;;;24.90;66.50;;;;;;5067906;28;20036;-50
2021/01/10 00:05:42;;;;;;;3.55;3.00;;;24.80;67.60;;;;;;5067869;28;20044;-57
2021/01/10 00:08:09;;;;;;;3.72;3.42;;;24.90;68.20;;;;;;5071142;28;20422;-56
2021/01/10 00:10:37;;;;;;;6.97;2.25;;;24.90;66.80;;;;;;5068985;28;20501;-60
2021/01/10 00:13:05;;;;;;;2.97;2.67;;;25.00;66.80;;;;;;5070946;28;20044;-63
2021/01/10 00:15:33;;;;;;;2.42;1.88;;;25.10;66.80;;;;;;5066423;28;20498;-57
2021/01/10 00:18:00;;;;;;;4.63;1.95;;;25.10;66.30;;;;;;5071475;28;20094;-63
2021/01/10 00:20:28;;;;;;;2.05;1.70;;;25.20;66.30;;;;;;5070964;28;20051;-53
2021/01/10 00:22:56;;;;;;;1.98;1.77;;;25.20;65.90;;;;;;5071030;28;20391;-57
2021/01/10 00:25:24;;;;;;;2.67;2.45;;;25.20;65.80;;;;;;5064776;28;20081;-60
2021/01/10 00:27:52;;;;;;;4.68;2.70;;;25.20;67.10;;;;;;5071116;28;20536;-57
2021/01/10 00:30:21;;;;;;;2.42;1.90;;;25.20;67.10;;;;;;5071036;28;20036;-60
2021/01/10 00:32:56;;;;;;;3.47;1.90;;;25.30;67.10;;;;;;5070644;28;20076;-59
2021/01/10 00:35:26;;;;;;;6.32;1.67;;;25.40;67.10;;;;;;5065207;28;20059;-60
2021/01/10 00:37:58;;;;;;;1.85;1.35;;;25.40;65.20;;;;;;5070914;28;20029;-58
2021/01/10 00:40:26;;;;;;;1.55;1.25;;;25.50;65.30;;;;;;5070707;28;20475;-57
2021/01/10 00:42:54;;;;;;;2.20;2.00;;;25.60;64.60;;;;;;5069899;28;20037;-58
2021/01/10 00:45:22;;;;;;;2.42;1.58;;;25.70;66.00;;;;;;5063956;28;20028;-57
2021/01/10 00:47:53;;;;;;;1.55;1.45;;;25.70;65.70;;;;;;5070174;28;20025;-61
2021/01/10 00:50:20;;;;;;;4.33;1.60;;;25.70;64.60;;;;;;5070684;28;20158;-64
2021/01/10 00:52:47;;;;;;;1.88;1.42;;;25.80;64.80;;;;;;5067233;28;20494;-59
2021/01/10 00:55:15;;;;;;;1.88;1.50;;;25.80;65.30;;;;;;5064110;28;20056;-53
2021/01/10 00:57:42;;;;;;;1.35;1.00;;;25.80;65.10;;;;;;5070060;28;21295;-60
2021/01/10 01:00:14;;;;;;;2.15;1.00;;;25.90;64.50;;;;;;5068984;28;20387;-56
2021/01/10 01:02:41;;;;;;;2.30;1.40;;;25.90;63.00;;;;;;5068912;28;20024;-59
2021/01/10 01:05:09;;;;;;;1.40;1.08;;;26.00;64.80;;;;;;5064090;28;20450;-56
2021/01/10 01:07:37;;;;;;;1.42;1.33;;;26.00;64.80;;;;;;5069532;28;20028;-50
2021/01/10 01:10:05;;;;;;;1.83;1.23;;;25.80;65.40;;;;;;5069950;28;20124;-61
2021/01/10 01:12:32;;;;;;;1.27;1.15;;;25.90;64.90;;;;;;5069744;28;20543;-55
2021/01/10 01:15:00;;;;;;;2.15;0.90;;;25.80;65.30;;;;;;5063356;28;20032;-54
2021/01/10 01:17:27;;;;;;;1.45;0.80;;;25.80;65.20;;;;;;5069896;28;20024;-59
2021/01/10 01:19:54;;;;;;;2.20;1.00;;;25.90;65.00;;;;;;5070149;28;20183;-56
2021/01/10 01:22:22;;;;;;;6.05;1.17;;;25.90;64.90;;;;;;5069542;28;20119;-52
2021/01/10 01:24:49;;;;;;;3.45;1.00;;;26.00;64.90;;;;;;5064246;28;20447;-53
2021/01/10 01:27:16;;;;;;;4.82;1.27;;;26.10;64.80;;;;;;5069971;28;20029;-52
2021/01/10 01:29:44;;;;;;;2.90;1.00;;;26.10;64.80;;;;;;5069977;28;20113;-50
2021/01/10 01:32:11;;;;;;;1.65;0.98;;;26.10;64.90;;;;;;5069902;28;20033;-55
2021/01/10 01:34:38;;;;;;;1.25;0.70;;;26.10;64.80;;;;;;5063366;28;20017;-59
2021/01/10 01:37:06;;;;;;;2.78;0.93;;;26.20;64.20;;;;;;5075444;28;20028;-57
2021/01/10 01:39:33;;;;;;;3.90;1.00;;;26.20;64.30;;;;;;5073854;28;20029;-56
2021/01/10 01:42:02;;;;;;;1.83;1.33;;;26.20;64.30;;;;;;5073126;28;20383;-53
2021/01/10 01:44:29;;;;;;;1.35;0.70;;;26.20;65.10;;;;;;5068176;28;20112;-57
2021/01/10 01:46:56;;;;;;;4.00;1.08;;;26.30;64.60;;;;;;5074804;28;20059;-62
2021/01/10 01:49:24;;;;;;;2.90;0.88;;;26.30;64.20;;;;;;5076122;28;20471;-63
2021/01/10 01:51:52;;;;;;;1.58;0.77;;;26.50;64.10;;;;;;5076756;28;20036;-57
2021/01/10 01:54:23;;;;;;;4.00;0.95;;;26.40;63.90;;;;;;5070298;28;20024;-66
2021/01/10 01:56:50;;;;;;;4.23;1.83;;;26.50;63.90;;;;;;5076763;28;20074;-63
2021/01/10 01:59:17;;;;;;;2.20;0.70;;;26.50;63.80;;;;;;5076031;28;20253;-62
2021/01/10 02:01:45;;;;;;;2.00;0.98;;;26.50;64.50;;;;;;5076496;28;20115;-48
2021/01/10 02:04:50;;;;;;;1.88;0.70;;;26.60;63.60;;;;;;5069181;28;20458;-57
2021/01/10 02:08:04;;;;;;;4.00;0.68;;;26.60;63.00;;;;;;5073491;28;20421;-53
2021/01/10 02:10:37;;;;;;;2.97;0.63;;;26.70;63.30;;;;;;5033815;28;20029;-58
2021/01/10 02:13:11;;;;;;;2.50;0.90;;;26.70;63.40;;;;;;5033924;28;20072;-59
2021/01/10 02:15:42;;;;;;;2.17;0.95;;;26.80;63.90;;;;;;5053590;28;20035;-59
2021/01/10 02:18:10;;;;;;;2.83;1.00;;;26.70;64.00;;;;;;5076815;28;20501;-56
2021/01/10 02:20:40;;;;;;;5.28;2.80;;;26.80;62.70;;;;;;5075999;28;20052;-56
2021/01/10 02:23:26;;;;;;;5.80;4.25;;;26.90;63.00;;;;;;5076994;28;20052;-68
2021/01/10 02:25:54;;;;;;;18.70;12.68;;;27.00;63.30;;;;;;5077922;28;20054;-67
2021/01/10 02:28:24;;;;;;;4.15;1.83;;;27.20;62.80;;;;;;5078159;28;20458;-68
2021/01/10 02:30:53;;;;;;;4.00;1.88;;;27.30;59.60;;;;;;5078015;28;20078;-68
2021/01/10 02:33:20;;;;;;;3.95;2.15;;;27.40;60.00;;;;;;5076834;28;20078;-69
2021/01/10 02:35:49;;;;;;;3.13;2.85;;;27.50;58.60;;;;;;5077993;28;20016;-62
2021/01/10 02:38:43;;;;;;;4.82;2.75;;;27.60;57.00;;;;;;5078142;28;20028;-65
2021/01/10 02:41:35;;;;;;;3.38;2.38;;;27.80;59.10;;;;;;5078011;28;20099;-66
2021/01/10 02:44:02;;;;;;;6.28;5.65;;;27.80;57.70;;;;;;5077707;28;20108;-68
2021/01/10 02:46:31;;;;;;;4.07;3.58;;;27.70;55.30;;;;;;5076830;28;20099;-68
2021/01/10 02:49:00;;;;;;;4.25;2.42;;;27.70;56.10;;;;;;5074553;28;20107;-67
2021/01/10 02:51:27;;;;;;;6.57;2.03;;;27.70;55.60;;;;;;5073764;28;20124;-68
2021/01/10 02:53:55;;;;;;;10.45;7.13;;;27.60;55.70;;;;;;5074741;28;20044;-65
2021/01/10 02:56:22;;;;;;;9.15;6.90;;;27.40;56.80;;;;;;5074610;28;20024;-65
2021/01/10 02:58:55;;;;;;;0.88;0.70;;;27.50;56.90;;;;;;5074359;28;20024;-65
2021/01/10 03:01:24;;;;;;;2.00;1.15;;;27.70;52.50;;;;;;5073443;28;20037;-59
2021/01/10 03:03:54;;;;;;;6.60;5.82;;;27.80;53.80;;;;;;5072341;28;20043;-62
2021/01/10 03:06:22;;;;;;;3.05;2.00;;;27.60;55.10;;;;;;5073646;28;20417;-69
2021/01/10 03:08:50;;;;;;;2.67;2.22;;;27.60;54.10;;;;;;5074276;28;20487;-68
2021/01/10 03:11:18;;;;;;;3.35;2.08;;;27.70;53.90;;;;;;5074256;28;20171;-62
2021/01/10 03:13:47;;;;;;;2.70;2.05;;;27.80;53.00;;;;;;5073897;28;20383;-69
2021/01/10 03:16:15;;;;;;;1.08;0.65;;;27.70;55.70;;;;;;5073782;28;20029;-66
2021/01/10 03:18:43;;;;;;;1.40;0.63;;;27.80;55.80;;;;;;5073767;28;20125;-69
2021/01/10 03:21:11;;;;;;;1.70;0.70;;;27.70;53.50;;;;;;5073894;28;20403;-67
2021/01/10 03:23:38;;;;;;;1.90;0.70;;;27.80;53.10;;;;;;5073708;28;20060;-67
2021/01/10 03:26:06;;;;;;;9.00;3.35;;;27.90;52.90;;;;;;5073765;28;20438;-60
2021/01/10 03:28:33;;;;;;;16.33;10.13;;;27.90;58.10;;;;;;5074033;28;20029;-64
2021/01/10 03:31:00;;;;;;;19.52;13.70;;;27.80;57.40;;;;;;5073687;28;20028;-64
2021/01/10 03:33:28;;;;;;;16.10;12.30;;;27.60;57.60;;;;;;5073325;28;20028;-63
2021/01/10 03:35:55;;;;;;;16.13;11.25;;;27.60;59.40;;;;;;5073496;28;20032;-60
2021/01/10 03:38:22;;;;;;;21.50;14.35;;;27.50;60.80;;;;;;5073517;28;20070;-62
2021/01/10 03:40:50;;;;;;;6.70;4.22;;;27.50;59.70;;;;;;5074135;28;20017;-58
2021/01/10 03:43:17;;;;;;;11.57;8.73;;;27.40;57.90;;;;;;5073447;28;20036;-58
2021/01/10 03:45:45;;;;;;;10.25;6.22;;;27.50;57.80;;;;;;5072480;28;20020;-59
2021/01/10 03:48:12;;;;;;;8.40;6.30;;;27.40;57.00;;;;;;5073443;28;20035;-57
2021/01/10 03:50:39;;;;;;;11.23;9.40;;;27.50;57.10;;;;;;5072601;28;20422;-70
2021/01/10 03:53:07;;;;;;;13.68;9.40;;;27.60;56.50;;;;;;5073301;28;20487;-70
2021/01/10 03:55:34;;;;;;;13.40;12.00;;;27.50;56.60;;;;;;5073599;28;20021;-63
2021/01/10 03:58:02;;;;;;;11.18;7.38;;;27.50;56.60;;;;;;5073955;28;20028;-67
2021/01/10 04:00:29;;;;;;;8.68;7.03;;;27.50;57.40;;;;;;5073265;28;20021;-66
2021/01/10 04:02:56;;;;;;;10.13;9.23;;;27.50;55.80;;;;;;5073292;28;20520;-63
2021/01/10 04:05:24;;;;;;;7.65;6.95;;;27.50;56.50;;;;;;5073002;28;20107;-61
2021/01/10 04:07:51;;;;;;;5.90;4.85;;;27.50;56.40;;;;;;5073403;28;20020;-69
2021/01/10 04:10:18;;;;;;;11.15;10.05;;;27.40;55.40;;;;;;5073134;28;20028;-68
2021/01/10 04:12:46;;;;;;;9.43;7.38;;;27.50;56.90;;;;;;5073007;28;20032;-57
2021/01/10 04:15:14;;;;;;;4.75;3.30;;;27.50;55.20;;;;;;5072871;28;20024;-65
2021/01/10 04:17:41;;;;;;;16.77;11.23;;;27.50;55.50;;;;;;5072737;28;20036;-66
2021/01/10 04:20:09;;;;;;;4.50;2.42;;;27.50;57.80;;;;;;5072707;28;20521;-69
2021/01/10 04:22:36;;;;;;;7.05;3.10;;;27.50;57.10;;;;;;5072792;28;20033;-63
2021/01/10 04:25:04;;;;;;;13.32;3.33;;;27.50;58.30;;;;;;5073020;28;20391;-67
2021/01/10 04:27:31;;;;;;;4.78;2.40;;;27.50;57.50;;;;;;5072619;28;20028;-66
2021/01/10 04:30:03;;;;;;;8.88;2.28;;;27.40;57.90;;;;;;5072756;28;20027;-70
2021/01/10 04:32:30;;;;;;;4.35;1.70;;;27.50;57.50;;;;;;5072435;28;20120;-65
2021/01/10 04:34:58;;;;;;;3.58;0.90;;;27.50;58.40;;;;;;5073116;28;20032;-68
2021/01/10 04:37:25;;;;;;;2.85;1.10;;;27.50;58.00;;;;;;5072494;28;20484;-67
2021/01/10 04:39:53;;;;;;;2.88;0.90;;;27.50;58.00;;;;;;5072742;28;20412;-62
2021/01/10 04:42:20;;;;;;;2.20;0.70;;;27.40;57.60;;;;;;5072567;28;20021;-65
2021/01/10 04:44:47;;;;;;;8.95;0.90;;;27.50;57.60;;;;;;5071420;28;20433;-68
2021/01/10 04:47:15;;;;;;;3.20;0.50;;;27.50;58.30;;;;;;5072831;28;20025;-56
2021/01/10 04:49:43;;;;;;;4.53;1.10;;;27.50;57.00;;;;;;5072413;28;20108;-64
2021/01/10 04:52:12;;;;;;;5.05;0.90;;;27.60;57.80;;;;;;5072627;28;20063;-65
2021/01/10 04:54:43;;;;;;;3.50;0.82;;;27.60;58.40;;;;;;5072297;28;20032;-65
2021/01/10 04:57:14;;;;;;;18.52;1.45;;;27.60;58.50;;;;;;5072436;28;20029;-64
2021/01/10 04:59:42;;;;;;;4.82;0.47;;;27.60;58.90;;;;;;5071861;28;20021;-54
2021/01/10 05:02:10;;;;;;;4.53;0.98;;;27.60;60.00;;;;;;5071327;28;20024;-57
2021/01/10 05:04:38;;;;;;;2.63;0.60;;;27.60;60.20;;;;;;5070388;28;20034;-63
2021/01/10 05:07:05;;;;;;;2.22;0.80;;;27.60;59.70;;;;;;5072360;28;20110;-58
2021/01/10 05:09:36;;;;;;;4.03;0.80;;;27.60;60.10;;;;;;5071512;28;20078;-67
2021/01/10 05:12:03;;;;;;;5.07;0.90;;;27.60;60.90;;;;;;5072215;28;20391;-63
2021/01/10 05:14:30;;;;;;;7.20;1.00;;;27.60;60.70;;;;;;5071877;28;20021;-67
2021/01/10 05:16:59;;;;;;;11.90;0.80;;;27.50;60.60;;;;;;5072465;28;20028;-68
2021/01/10 05:19:30;;;;;;;2.15;0.57;;;27.50;60.70;;;;;;5070585;28;20086;-59
2021/01/10 05:22:05;;;;;;;4.67;0.53;;;27.50;61.10;;;;;;5071566;28;20127;-63
2021/01/10 05:24:32;;;;;;;6.32;0.60;;;27.40;60.20;;;;;;5069456;28;20033;-61
2021/01/10 05:27:00;;;;;;;10.13;0.90;;;27.40;59.90;;;;;;5070948;28;20475;-62
2021/01/10 05:29:27;;;;;;;5.78;0.80;;;27.40;60.30;;;;;;5071903;28;20379;-67
2021/01/10 05:31:55;;;;;;;4.85;0.98;;;27.40;60.40;;;;;;5072365;28;20033;-63
2021/01/10 05:34:24;;;;;;;4.25;0.60;;;27.40;60.50;;;;;;5072179;28;20032;-64
2021/01/10 05:36:51;;;;;;;3.10;0.60;;;27.40;60.60;;;;;;5072225;28;20016;-67
2021/01/10 05:39:27;;;;;;;1.52;0.50;;;27.30;60.20;;;;;;5070828;28;20475;-61
2021/01/10 05:42:00;;;;;;;3.03;0.65;;;27.20;60.60;;;;;;5071767;28;20068;-62
2021/01/10 05:44:29;;;;;;;4.10;1.15;;;27.10;60.80;;;;;;5071869;28;20021;-60
2021/01/10 05:47:07;;;;;;;4.93;0.68;;;27.10;61.20;;;;;;5071783;28;20082;-66
2021/01/10 05:49:35;;;;;;;2.20;0.50;;;27.10;61.50;;;;;;5071829;28;20356;-69
2021/01/10 05:52:10;;;;;;;3.15;0.60;;;27.00;61.50;;;;;;5071903;28;20040;-59
2021/01/10 05:54:48;;;;;;;3.55;0.45;;;27.00;61.50;;;;;;5071779;28;20025;-51
2021/01/10 05:57:25;;;;;;;1.90;0.60;;;26.90;62.10;;;;;;5070526;28;20029;-52
2021/01/10 05:59:54;;;;;;;2.42;0.47;;;26.90;62.40;;;;;;5071636;28;20046;-53
2021/01/10 06:02:31;;;;;;;5.35;0.50;;;27.00;62.50;;;;;;5072032;28;20032;-62
2021/01/10 06:05:17;;;;;;;1.52;0.38;;;26.90;62.70;;;;;;5072009;28;20055;-65
2021/01/10 06:07:46;;;;;;;4.30;0.75;;;26.90;62.50;;;;;;5071217;28;20056;-65
2021/01/10 06:10:24;;;;;;;0.70;0.30;;;27.00;62.40;;;;;;5071560;28;20028;-61
2021/01/10 06:13:05;;;;;;;3.45;1.00;;;27.00;63.00;;;;;;5071425;28;20043;-66
2021/01/10 06:15:34;;;;;;;2.45;0.43;;;27.00;62.20;;;;;;5071319;28;20017;-65
2021/01/10 06:18:03;;;;;;;6.65;0.70;;;27.00;62.90;;;;;;5071339;28;20029;-65
2021/01/10 06:20:34;;;;;;;4.18;0.30;;;26.90;62.80;;;;;;5071087;28;20078;-65
2021/01/10 06:23:04;;;;;;;1.08;0.40;;;26.90;62.80;;;;;;5073364;28;20392;-62
2021/01/10 06:25:38;;;;;;;1.02;0.30;;;26.90;62.40;;;;;;5073765;28;20036;-65
2021/01/10 06:28:21;;;;;;;1.65;0.60;;;26.80;63.10;;;;;;5065423;28;20052;-56
2021/01/10 06:30:59;;;;;;;0.57;0.20;;;26.80;62.90;;;;;;5072611;28;20104;-53
2021/01/10 06:33:34;;;;;;;1.05;0.50;;;26.80;63.80;;;;;;5072715;28;20060;-53
2021/01/10 06:36:08;;;;;;;1.60;0.50;;;26.80;63.70;;;;;;5073741;28;20028;-52
2021/01/10 06:38:37;;;;;;;1.10;0.32;;;26.90;63.80;;;;;;5069444;28;20032;-61
2021/01/10 06:41:22;;;;;;;1.80;0.30;;;26.80;63.70;;;;;;5073347;28;20028;-61
2021/01/10 06:44:09;;;;;;;1.65;0.47;;;26.80;64.00;;;;;;5073274;28;20017;-67
2021/01/10 06:46:37;;;;;;;1.75;0.60;;;26.70;63.90;;;;;;5072867;28;20028;-61
2021/01/10 06:49:07;;;;;;;0.40;0.25;;;26.70;64.20;;;;;;5068768;28;20036;-54
2021/01/10 06:51:38;;;;;;;1.60;0.68;;;26.60;64.60;;;;;;5072405;28;20426;-68
2021/01/10 06:54:06;;;;;;;2.95;0.80;;;26.60;64.60;;;;;;5073059;28;20025;-61
2021/01/10 06:56:33;;;;;;;7.22;0.55;;;26.60;65.00;;;;;;5071838;28;20039;-62
2021/01/10 06:59:16;;;;;;;0.73;0.40;;;26.50;64.60;;;;;;5067438;28;20032;-57
2021/01/10 07:01:52;;;;;;;1.20;0.38;;;26.50;65.20;;;;;;5072321;28;20025;-51
2021/01/10 07:04:43;;;;;;;2.85;0.85;;;26.50;65.20;;;;;;5071528;28;20021;-53
2021/01/10 07:07:34;;;;;;;1.45;0.40;;;26.40;65.50;;;;;;5067171;28;20027;-65
2021/01/10 07:10:03;;;;;;;1.20;0.47;;;26.30;65.60;;;;;;5070179;28;20538;-54
2021/01/10 07:12:30;;;;;;;1.55;0.60;;;26.30;66.30;;;;;;5072518;28;20036;-58
2021/01/10 07:15:19;;;;;;;1.90;0.40;;;26.30;66.10;;;;;;5066244;28;20028;-55
2021/01/10 07:18:03;;;;;;;1.85;0.55;;;26.30;66.10;;;;;;5066591;28;20020;-58
2021/01/10 07:20:36;;;;;;;0.85;0.30;;;26.30;66.20;;;;;;5068174;28;20451;-57
2021/01/10 07:23:29;;;;;;;1.85;0.88;;;26.20;66.20;;;;;;5069225;28;20136;-54
2021/01/10 07:25:58;;;;;;;1.92;0.50;;;26.20;66.40;;;;;;5072547;28;20029;-64
2021/01/10 07:28:37;;;;;;;1.50;0.30;;;26.20;66.40;;;;;;5068736;28;21720;-59
2021/01/10 07:31:14;;;;;;;1.13;0.30;;;26.20;66.50;;;;;;5071872;28;20564;-50
2021/01/10 07:33:42;;;;;;;1.40;0.60;;;26.20;66.70;;;;;;5069573;28;20106;-63
2021/01/10 07:36:10;;;;;;;1.80;0.60;;;26.10;66.70;;;;;;5072427;28;20027;-63
2021/01/10 07:38:40;;;;;;;0.35;0.30;;;26.10;66.80;;;;;;5068193;28;20025;-59
2021/01/10 07:41:30;;;;;;;2.10;0.47;;;26.10;66.90;;;;;;5071819;28;20036;-60
2021/01/10 07:43:58;;;;;;;3.17;0.77;;;26.10;66.90;;;;;;5071281;28;20027;-60
2021/01/10 07:46:59;;;;;;;2.30;0.43;;;26.10;67.20;;;;;;5071952;28;20034;-62
2021/01/10 07:49:32;;;;;;;5.40;0.60;;;26.00;67.30;;;;;;5066482;28;20025;-62
2021/01/10 07:52:00;;;;;;;2.92;0.60;;;26.00;67.20;;;;;;5071429;28;20052;-63
2021/01/10 07:54:52;;;;;;;0.30;0.22;;;26.00;67.50;;;;;;5070669;28;20017;-61
2021/01/10 07:57:33;;;;;;;1.17;0.40;;;25.90;67.50;;;;;;5070775;28;20027;-64
2021/01/10 08:00:16;;;;;;;1.02;0.50;;;25.90;67.70;;;;;;5068158;28;20033;-60
2021/01/10 08:02:47;;;;;;;2.17;0.47;;;25.90;67.70;;;;;;5069792;28;20549;-63
2021/01/10 08:05:25;;;;;;;1.35;0.40;;;25.80;67.90;;;;;;5068706;28;20025;-63
2021/01/10 08:07:58;;;;;;;0.90;0.40;;;25.80;68.10;;;;;;5065505;28;20941;-63
2021/01/10 08:10:42;;;;;;;1.17;0.30;;;25.70;68.00;;;;;;5071667;28;20020;-62
2021/01/10 08:13:31;;;;;;;1.98;1.15;;;25.70;68.20;;;;;;5072367;28;20509;-68
2021/01/10 08:16:04;;;;;;;2.13;0.52;;;25.70;68.40;;;;;;5073147;28;20027;-69
2021/01/10 08:18:44;;;;;;;0.93;0.30;;;25.70;68.40;;;;;;5073017;28;20379;-72
2021/01/10 08:21:19;;;;;;;1.40;0.47;;;25.60;68.30;;;;;;5072815;28;20494;-69
2021/01/10 08:24:05;;;;;;;2.40;0.52;;;25.60;68.30;;;;;;5071710;28;20372;-66
2021/01/10 08:26:39;;;;;;;10.18;2.60;;;25.60;68.40;;;;;;5063421;28;20020;-57
2021/01/10 08:29:08;;;;;;;7.15;1.50;;;25.50;69.00;;;;;;5070516;28;20537;-58
2021/01/10 08:31:37;;;;;;;4.88;1.40;;;25.50;69.40;;;;;;5068390;28;20031;-59
2021/01/10 08:34:13;;;;;;;7.35;1.70;;;25.50;69.20;;;;;;5071264;28;20025;-60
2021/01/10 08:36:44;;;;;;;4.60;1.60;;;25.50;69.40;;;;;;5070172;28;20031;-62
2021/01/10 08:39:14;;;;;;;;;;;25.50;69.40;;;;;;5071503;28;20082;-55
2021/01/10 08:41:45;;;;;;;5.80;1.25;;;25.50;69.50;;;;;;5068378;28;19904;-63
2021/01/10 08:44:21;;;;;;;3.72;1.00;;;25.40;69.70;;;;;;5068008;28;20044;-63
2021/01/10 08:46:50;;;;;;;7.05;1.50;;;25.40;69.40;;;;;;5065301;28;20033;-61
2021/01/10 08:49:19;;;;;;;3.92;1.38;;;25.50;70.00;;;;;;5068821;28;20033;-61
2021/01/10 08:51:50;;;;;;;5.05;1.08;;;25.40;70.20;;;;;;5064326;28;20036;-62
2021/01/10 08:54:23;;;;;;;3.20;1.10;;;25.40;69.90;;;;;;5068473;28;20042;-62
2021/01/10 08:56:55;;;;;;;4.65;1.27;;;25.40;69.80;;;;;;5069685;28;20467;-63
2021/01/10 08:59:23;;;;;;;4.50;0.90;;;25.40;70.10;;;;;;5098024;28;20074;-64
2021/01/10 09:01:51;;;;;;;4.47;1.48;;;25.30;70.20;;;;;;5063013;28;20052;-66
2021/01/10 09:04:19;;;;;;;5.22;1.50;;;25.30;70.20;;;;;;5071080;28;20021;-63
2021/01/10 09:07:24;;;;;;;3.80;1.38;;;25.30;70.30;;;;;;5067319;28;20028;-64
2021/01/10 09:10:06;;;;;;;2.83;1.05;;;25.30;70.40;;;;;;5064135;28;20039;-63
2021/01/10 09:12:57;;;;;;;7.65;1.60;;;25.20;70.40;;;;;;5062671;28;20391;-62
2021/01/10 09:15:34;;;;;;;4.38;0.90;;;25.20;70.70;;;;;;5068017;28;20029;-64
2021/01/10 09:18:20;;;;;;;2.92;1.15;;;25.20;72.00;;;;;;5070851;28;20025;-64
2021/01/10 09:20:57;;;;;;;8.93;1.30;;;25.20;71.40;;;;;;5063473;28;20053;-53
2021/01/10 09:23:24;;;;;;;3.53;1.20;;;25.10;71.30;;;;;;5070624;28;20024;-62
2021/01/10 09:25:52;;;;;;;5.57;1.13;;;25.10;71.40;;;;;;5070311;28;20025;-58
2021/01/10 09:28:21;;;;;;;3.13;0.88;;;25.10;71.50;;;;;;5067045;28;20475;-59
2021/01/10 09:30:53;;;;;;;2.72;1.10;;;25.10;71.60;;;;;;5066350;28;20045;-59
2021/01/10 09:33:32;;;;;;;4.43;1.20;;;25.10;71.80;;;;;;5067956;28;20051;-56
2021/01/10 09:36:01;;;;;;;5.50;1.23;;;25.00;71.80;;;;;;5070098;28;20101;-62
2021/01/10 09:38:31;;;;;;;7.63;1.42;;;25.10;72.00;;;;;;5070339;28;20511;-66
2021/01/10 09:41:03;;;;;;;6.35;1.00;;;25.00;72.10;;;;;;5066454;28;20021;-66
2021/01/10 09:43:40;;;;;;;3.67;1.10;;;25.00;72.30;;;;;;5068653;28;20035;-56
2021/01/10 09:46:30;;;;;;;5.28;1.05;;;25.00;72.30;;;;;;5069171;28;20024;-56
2021/01/10 09:49:00;;;;;;;2.97;0.93;;;25.00;72.50;;;;;;5070427;28;20033;-63
2021/01/10 09:51:51;;;;;;;2.50;0.82;;;25.00;72.50;;;;;;5065129;28;20463;-64
2021/01/10 09:54:19;;;;;;;2.30;0.93;;;24.90;72.50;;;;;;5069117;28;20115;-61
2021/01/10 09:56:49;;;;;;;3.58;0.93;;;25.00;72.80;;;;;;5071672;28;20030;-57
2021/01/10 09:59:41;;;;;;;1.92;0.77;;;24.90;72.70;;;;;;5072444;28;20060;-61
2021/01/10 10:02:37;;;;;;;2.30;0.75;;;24.90;72.80;;;;;;5068899;28;20503;-65
2021/01/10 10:05:25;;;;;;;3.00;0.73;;;24.90;72.90;;;;;;5070416;28;20033;-60
2021/01/10 10:08:01;;;;;;;4.00;1.10;;;24.90;73.00;;;;;;5073915;28;20098;-63
2021/01/10 10:10:34;;;;;;;3.00;1.00;;;24.90;73.00;;;;;;5071950;28;20021;-61
2021/01/10 10:13:01;;;;;;;1.13;0.50;;;24.90;73.10;;;;;;5071624;28;20049;-57
2021/01/10 10:15:54;;;;;;;4.07;0.90;;;24.80;73.10;;;;;;5074172;28;20081;-59
2021/01/10 10:18:31;;;;;;;2.45;0.93;;;24.80;73.10;;;;;;5070494;28;20048;-58
2021/01/10 10:21:01;;;;;;;3.22;0.80;;;24.80;73.10;;;;;;5069760;28;20084;-64
2021/01/10 10:23:28;;;;;;;1.88;0.75;;;24.80;73.30;;;;;;5072856;28;20475;-64
2021/01/10 10:25:56;;;;;;;3.72;0.70;;;24.80;73.30;;;;;;5073261;28;20037;-69
2021/01/10 10:28:23;;;;;;;2.03;0.95;;;24.80;73.30;;;;;;5073713;28;20021;-58
2021/01/10 10:30:51;;;;;;;2.75;0.80;;;24.80;73.40;;;;;;5068414;28;20037;-58
2021/01/10 10:33:19;;;;;;;2.85;0.80;;;24.70;73.40;;;;;;5074044;28;20037;-55
2021/01/10 10:35:46;;;;;;;5.38;1.15;;;24.80;73.60;;;;;;5073067;28;20024;-50
2021/01/10 10:38:14;;;;;;;1.50;0.90;;;24.70;73.50;;;;;;5073467;28;20036;-55
2021/01/10 10:40:41;;;;;;;2.50;0.60;;;24.70;73.60;;;;;;5068567;28;20032;-67
2021/01/10 10:43:09;;;;;;;9.52;1.27;;;24.80;73.70;;;;;;5073379;28;20060;-59
2021/01/10 10:45:36;;;;;;;3.47;1.20;;;24.70;73.60;;;;;;5073741;28;20126;-54
2021/01/10 10:48:04;;;;;;;3.78;0.90;;;24.70;73.70;;;;;;5072682;28;20070;-61
2021/01/10 10:50:33;;;;;;;2.35;0.93;;;24.70;73.70;;;;;;5071109;28;20032;-62
2021/01/10 10:53:00;;;;;;;2.55;0.77;;;24.70;73.80;;;;;;5070366;28;20036;-59
2021/01/10 10:55:28;;;;;;;2.05;0.80;;;24.70;73.90;;;;;;5073222;28;20025;-63
2021/01/10 10:57:56;;;;;;;3.08;0.90;;;24.70;74.00;;;;;;5072507;28;20086;-56
2021/01/10 11:00:23;;;;;;;2.67;0.73;;;24.60;74.00;;;;;;5072324;28;20024;-58
2021/01/10 11:02:54;;;;;;;;;;;24.60;74.00;;;;;;5070952;28;20036;-51
2021/01/10 11:05:22;;;;;;;4.93;0.55;;;24.60;74.00;;;;;;5070330;28;20407;-61
2021/01/10 11:07:50;;;;;;;2.97;0.90;;;24.60;74.00;;;;;;5069876;28;20199;-56
2021/01/10 11:10:17;;;;;;;6.03;0.70;;;24.60;74.10;;;;;;5071113;28;20020;-58
2021/01/10 11:12:45;;;;;;;1.50;0.70;;;24.60;74.20;;;;;;5065732;28;20136;-55
2021/01/10 11:15:13;;;;;;;2.63;0.73;;;24.60;74.30;;;;;;5069774;28;20048;-57
2021/01/10 11:17:40;;;;;;;2.70;0.93;;;24.60;74.30;;;;;;5069999;28;20060;-55
2021/01/10 11:20:08;;;;;;;2.88;0.70;;;24.60;74.30;;;;;;5072118;28;20112;-58
2021/01/10 11:22:36;;;;;;;1.80;0.60;;;24.60;74.30;;;;;;5065941;28;20491;-57
2021/01/10 11:25:07;;;;;;;1.00;0.35;;;24.50;74.40;;;;;;5073187;28;20066;-62
2021/01/10 11:27:35;;;;;;;1.70;0.70;;;24.60;74.50;;;;;;5054191;28;20029;-59
2021/01/10 11:30:05;;;;;;;3.50;0.80;;;24.60;74.50;;;;;;5071659;28;20115;-60
2021/01/10 11:32:34;;;;;;;1.88;0.77;;;24.50;74.40;;;;;;5067095;28;20165;-59
2021/01/10 11:35:02;;;;;;;2.28;0.70;;;24.50;74.40;;;;;;5072829;28;20066;-59
2021/01/10 11:37:29;;;;;;;1.38;0.50;;;24.50;74.50;;;;;;5067741;28;20071;-58
2021/01/10 11:39:56;;;;;;;1.60;0.50;;;24.50;74.50;;;;;;5072153;28;20024;-64
2021/01/10 11:42:24;;;;;;;1.65;0.65;;;24.50;74.50;;;;;;5064846;28;20339;-57
2021/01/10 11:44:53;;;;;;;1.77;0.60;;;24.50;74.60;;;;;;5072747;28;20028;-54
2021/01/10 11:47:23;;;;;;;1.77;0.65;;;24.50;74.60;;;;;;5071593;28;20131;-60
2021/01/10 11:49:50;;;;;;;1.70;0.80;;;24.50;74.60;;;;;;5072644;28;20408;-58
2021/01/10 11:52:18;;;;;;;3.88;0.50;;;24.50;74.60;;;;;;5067070;28;20035;-53
2021/01/10 11:54:45;;;;;;;2.13;0.50;;;24.50;74.50;;;;;;5069120;28;20027;-54
2021/01/10 11:57:12;;;;;;;2.13;0.70;;;24.50;74.70;;;;;;5071636;28;20426;-53
2021/01/10 11:59:40;;;;;;;3.58;0.65;;;24.50;74.70;;;;;;5071862;28;20017;-54
2021/01/10 12:02:07;;;;;;;1.35;0.73;;;24.50;74.80;;;;;;5066485;28;20025;-59
2021/01/10 12:04:34;;;;;;;3.58;0.60;;;24.50;74.90;;;;;;5072142;28;20035;-61
2021/01/10 12:07:02;;;;;;;1.42;0.70;;;24.40;75.20;;;;;;5071467;28;20420;-60
2021/01/10 12:09:29;;;;;;;2.65;0.80;;;24.40;75.30;;;;;;5072534;28;20032;-65
2021/01/10 12:11:56;;;;;;;1.77;0.50;;;24.50;75.50;;;;;;5065853;28;20059;-62
2021/01/10 12:14:24;;;;;;;1.65;0.65;;;24.50;75.10;;;;;;5071921;28;20035;-53
2021/01/10 12:16:51;;;;;;;2.00;0.52;;;24.40;75.00;;;;;;5071269;28;20149;-60
2021/01/10 12:19:18;;;;;;;1.63;0.52;;;24.50;75.00;;;;;;5071769;28;20471;-57
2021/01/10 12:21:48;;;;;;;1.25;0.50;;;24.40;75.50;;;;;;5065922;28;20109;-57
2021/01/10 12:24:15;;;;;;;2.75;0.95;;;24.40;75.60;;;;;;5071318;28;20044;-54
2021/01/10 12:26:43;;;;;;;6.30;0.47;;;24.40;75.50;;;;;;5070235;28;20027;-54
2021/01/10 12:29:10;;;;;;;3.55;0.45;;;24.40;75.50;;;;;;5071244;28;20115;-58
2021/01/10 12:31:38;;;;;;;2.38;0.55;;;24.40;75.50;;;;;;5065975;28;20383;-67
2021/01/10 12:34:07;;;;;;;1.58;0.55;;;24.40;75.50;;;;;;5070803;28;20036;-58
2021/01/10 12:36:34;;;;;;;0.70;0.30;;;24.40;75.50;;;;;;5070601;28;20016;-57
2021/01/10 12:39:02;;;;;;;4.93;0.70;;;24.40;75.50;;;;;;5071821;28;20401;-55
2021/01/10 12:41:29;;;;;;;1.70;0.50;;;24.40;75.40;;;;;;5064092;28;20154;-61
2021/01/10 12:43:57;;;;;;;1.15;0.60;;;24.40;75.40;;;;;;5070934;28;20021;-57
2021/01/10 12:46:33;;;;;;;2.75;0.38;;;24.40;75.40;;;;;;5071081;28;20025;-58
2021/01/10 12:49:00;;;;;;;2.63;0.88;;;24.40;75.40;;;;;;5070937;28;20085;-61
2021/01/10 12:51:38;;;;;;;1.65;0.52;;;24.40;75.40;;;;;;5066000;28;20032;-62
2021/01/10 12:54:06;;;;;;;1.50;0.50;;;24.40;75.20;;;;;;5069587;28;20540;-57
2021/01/10 12:56:35;;;;;;;3.38;0.40;;;24.40;75.30;;;;;;5070350;28;20117;-57
2021/01/10 12:59:03;;;;;;;2.15;0.63;;;24.40;75.40;;;;;;5070021;28;20525;-57
2021/01/10 13:01:30;;;;;;;1.63;0.45;;;24.40;75.40;;;;;;5065895;28;20033;-59
2021/01/10 13:04:01;;;;;;;0.57;0.32;;;24.40;75.40;;;;;;5071269;28;20028;-59
2021/01/10 13:06:31;;;;;;;1.45;0.50;;;24.30;75.30;;;;;;5070414;28;20060;-62